Time;durP1;ratioP1;P1;durP2;ratioP2;P2;SDS_P1;SDS_P2;PMS_P1;PMS_P2;Temp;Humidity;BMP_temperature;BMP_pressure;BME280_temperature;BME280_humidity;BME280_pressure;Samples;Min_cycle;Max_cycle;Signal;HPM_P1;HPM_P2
2022/08/03 00:01:02;;;;;;;0.22;0.22;;;;;;;24.46;44.97;100979.16;5166023;28;20034;-81
2022/08/03 00:03:33;;;;;;;1.75;0.90;;;;;;;24.47;44.56;100984.38;5171948;28;20034;-81
2022/08/03 00:06:03;;;;;;;0.10;0.10;;;;;;;24.43;44.74;100979.41;5145200;28;20062;-81
2022/08/03 00:08:34;;;;;;;0.20;0.20;;;;;;;24.42;44.80;100983.88;5195081;28;20108;-83
2022/08/03 00:11:05;;;;;;;0.30;0.30;;;;;;;24.39;44.97;100983.28;5153618;28;20038;-83
2022/08/03 00:13:36;;;;;;;0.35;0.35;;;;;;;24.36;45.10;100979.03;5180128;28;20078;-83
2022/08/03 00:16:09;;;;;;;0.30;0.30;;;;;;;24.35;44.96;100974.66;5176927;28;20034;-83
2022/08/03 00:18:39;;;;;;;;;;;;;;;24.34;44.95;100967.56;5207932;28;20261;-83
2022/08/03 00:21:10;;;;;;;0.30;0.30;;;;;;;24.32;44.98;100966.88;5194441;28;20047;-83
2022/08/03 00:23:41;;;;;;;1.08;0.98;;;;;;;24.31;45.57;100971.38;5170639;28;20042;-83
2022/08/03 00:26:11;;;;;;;0.75;0.43;;;;;;;24.29;45.28;100962.63;5186764;28;20038;-83
2022/08/03 00:28:42;;;;;;;0.50;0.50;;;;;;;24.25;45.29;100963.00;5160309;28;20033;-83
2022/08/03 00:31:12;;;;;;;0.20;0.20;;;;;;;24.24;45.08;100959.44;5191739;28;20077;-83
2022/08/03 00:33:43;;;;;;;0.60;0.50;;;;;;;24.22;45.01;100960.53;5188398;28;20041;-83
2022/08/03 00:36:13;;;;;;;0.40;0.40;;;;;;;24.19;45.24;100957.13;5209437;28;20038;-83
2022/08/03 00:38:44;;;;;;;0.30;0.30;;;;;;;24.18;45.28;100959.94;5183890;28;20445;-83
2022/08/03 00:41:14;;;;;;;0.35;0.35;;;;;;;24.17;45.27;100964.44;5193071;28;20042;-83
2022/08/03 00:43:46;;;;;;;0.95;0.80;;;;;;;24.16;45.13;100957.41;5197498;28;20036;-83
2022/08/03 00:46:16;;;;;;;0.90;0.90;;;;;;;24.13;45.67;100957.63;5197519;28;20045;-83
2022/08/03 00:48:49;;;;;;;0.85;0.63;;;;;;;24.08;45.85;100959.84;5189146;28;20059;-83
2022/08/03 00:51:21;;;;;;;0.80;0.80;;;;;;;24.07;45.26;100952.78;5188008;28;20038;-83
2022/08/03 00:53:51;;;;;;;1.37;0.70;;;;;;;24.02;45.52;100953.16;5158252;28;20404;-83
2022/08/03 00:56:22;;;;;;;0.60;0.60;;;;;;;24.01;45.47;100955.94;5158296;28;20802;-83
2022/08/03 00:58:55;;;;;;;0.50;0.50;;;;;;;24.01;45.44;100962.16;5188981;28;20073;-83
2022/08/03 01:01:26;;;;;;;0.73;0.73;;;;;;;23.95;46.06;100953.75;5189287;28;20044;-83
2022/08/03 01:03:56;;;;;;;1.40;0.77;;;;;;;23.92;46.54;100954.81;5176022;28;20034;-83
2022/08/03 01:06:41;;;;;;;0.63;0.60;;;;;;;23.93;45.67;100950.31;5189258;28;20041;-83
2022/08/03 01:09:50;;;;;;;0.52;0.40;;;;;;;23.87;46.38;100952.50;5174338;28;20366;-83
2022/08/03 01:12:33;;;;;;;1.90;1.52;;;;;;;23.84;46.35;100949.22;5197514;28;20369;-83
2022/08/03 01:15:34;;;;;;;1.52;1.42;;;;;;;23.83;46.38;100945.72;5212458;28;20072;-83
2022/08/03 01:18:10;;;;;;;0.20;0.20;;;;;;;23.79;46.60;100948.75;5164000;28;20033;-84
2022/08/03 01:20:46;;;;;;;0.20;0.20;;;;;;;23.77;46.77;100951.53;5171762;28;20049;-83
2022/08/03 01:23:38;;;;;;;5.28;1.65;;;;;;;23.78;45.98;100942.53;5176385;28;20032;-83
2022/08/03 01:26:32;;;;;;;0.35;0.35;;;;;;;23.77;46.35;100953.38;5185937;28;20042;-83
2022/08/03 01:29:08;;;;;;;0.20;0.20;;;;;;;23.74;46.20;100947.28;5189602;28;20034;-83
2022/08/03 01:31:43;;;;;;;5.10;1.85;;;;;;;23.73;46.82;100950.09;5190251;28;20451;-83
2022/08/03 01:34:18;;;;;;;0.50;0.50;;;;;;;23.74;46.47;100946.44;5180350;28;20043;-83
2022/08/03 01:36:52;;;;;;;0.32;0.32;;;;;;;23.69;46.71;100944.13;5200064;22;20493;-79
2022/08/03 01:39:24;;;;;;;3.65;1.58;;;;;;;23.66;46.52;100954.22;5210277;28;20025;-80
2022/08/03 01:42:05;;;;;;;2.00;0.88;;;;;;;23.67;46.85;100942.53;5195120;28;20575;-79
2022/08/03 01:44:40;;;;;;;0.40;0.40;;;;;;;23.64;46.85;100946.28;5198901;28;20025;-79
2022/08/03 01:47:11;;;;;;;0.47;0.35;;;;;;;23.67;46.31;100946.06;5161335;28;20041;-79
2022/08/03 01:49:44;;;;;;;0.73;0.52;;;;;;;23.64;47.17;100945.47;5189818;28;20278;-79
2022/08/03 01:52:18;;;;;;;0.60;0.60;;;;;;;23.61;47.01;100940.34;5163706;28;20034;-79
2022/08/03 01:54:52;;;;;;;0.40;0.40;;;;;;;23.55;47.22;100941.69;5163790;28;20754;-79
2022/08/03 01:57:24;;;;;;;1.55;0.43;;;;;;;23.52;47.33;100937.41;5168744;28;20034;-79
2022/08/03 01:59:56;;;;;;;0.35;0.35;;;;;;;23.51;47.07;100943.72;5152565;28;20035;-79
2022/08/03 02:02:28;;;;;;;0.70;0.70;;;;;;;23.50;47.00;100942.06;5176322;28;20023;-78
2022/08/03 02:05:00;;;;;;;0.85;0.85;;;;;;;23.50;47.20;100939.38;5160091;28;20046;-78
2022/08/03 02:07:35;;;;;;;0.20;0.20;;;;;;;23.55;47.20;100939.84;5174448;28;20054;-78
2022/08/03 02:10:08;;;;;;;0.30;0.30;;;;;;;23.50;47.30;100950.09;5173092;28;20355;-78
2022/08/03 02:12:41;;;;;;;0.55;0.55;;;;;;;23.47;47.50;100939.59;5170316;28;20054;-78
2022/08/03 02:15:14;;;;;;;0.50;0.50;;;;;;;23.42;47.25;100939.97;5158166;28;20053;-79
2022/08/03 02:17:47;;;;;;;2.90;1.17;;;;;;;23.38;47.55;100941.19;5159633;28;20041;-78
2022/08/03 02:20:18;;;;;;;1.65;1.00;;;;;;;23.36;47.30;100931.53;5175696;28;20115;-78
2022/08/03 02:22:49;;;;;;;0.60;0.60;;;;;;;23.38;46.99;100938.50;5175102;28;20553;-78
2022/08/03 02:25:19;;;;;;;0.20;0.20;;;;;;;23.36;47.45;100939.56;5180715;28;20042;-78
2022/08/03 02:27:55;;;;;;;0.40;0.40;;;;;;;23.37;47.19;100939.47;5161862;28;20022;-78
2022/08/03 02:30:35;;;;;;;0.45;0.30;;;;;;;23.35;48.03;100935.19;5179477;28;20054;-78
2022/08/03 02:33:11;;;;;;;0.57;0.57;;;;;;;23.34;47.41;100934.34;5161281;28;20026;-78
2022/08/03 02:35:42;;;;;;;0.28;0.28;;;;;;;23.25;47.81;100933.25;5156873;28;20053;-78
2022/08/03 02:38:17;;;;;;;0.63;0.60;;;;;;;23.25;47.44;100930.59;5169652;28;20109;-78
2022/08/03 02:40:49;;;;;;;0.30;0.30;;;;;;;23.24;47.61;100926.19;5173546;28;20085;-78
2022/08/03 02:43:23;;;;;;;1.10;1.00;;;;;;;23.22;47.75;100933.47;5159213;28;20385;-78
2022/08/03 02:45:53;;;;;;;0.25;0.25;;;;;;;23.17;47.88;100930.28;5160248;28;20092;-78
2022/08/03 02:48:28;;;;;;;2.45;0.68;;;;;;;23.14;47.98;100922.50;5163106;28;20050;-78
2022/08/03 02:51:01;;;;;;;6.75;1.63;;;;;;;23.13;47.72;100931.47;5169827;28;20093;-78
2022/08/03 02:53:33;;;;;;;0.30;0.30;;;;;;;23.12;47.85;100935.13;5161750;28;20057;-78
2022/08/03 02:56:05;;;;;;;0.73;0.73;;;;;;;23.11;48.11;100923.59;5160373;28;20042;-78
2022/08/03 02:58:39;;;;;;;0.22;0.22;;;;;;;23.11;47.87;100931.63;5157440;28;20026;-78
2022/08/03 03:01:10;;;;;;;0.63;0.63;;;;;;;23.06;48.38;100924.91;5153768;28;20045;-78
2022/08/03 03:03:41;;;;;;;0.20;0.20;;;;;;;23.06;48.14;100917.72;5155538;28;20046;-78
2022/08/03 03:06:12;;;;;;;0.40;0.40;;;;;;;23.02;47.94;100924.28;5161389;28;20247;-78
2022/08/03 03:08:43;;;;;;;0.40;0.30;;;;;;;23.03;48.06;100925.13;5154854;28;20030;-78
2022/08/03 03:11:17;;;;;;;0.60;0.60;;;;;;;22.97;48.50;100928.28;5189688;28;20038;-78
2022/08/03 03:13:50;;;;;;;1.13;0.95;;;;;;;22.97;47.85;100928.28;5189397;28;20033;-79
2022/08/03 03:16:21;;;;;;;0.32;0.32;;;;;;;22.94;48.68;100926.69;5207732;28;20044;-79
2022/08/03 03:18:53;;;;;;;0.98;0.70;;;;;;;22.95;48.56;100931.06;5207637;28;20509;-79
2022/08/03 03:21:25;;;;;;;0.60;0.60;;;;;;;22.89;48.29;100921.69;5205925;28;20048;-79
2022/08/03 03:23:58;;;;;;;0.30;0.30;;;;;;;22.91;48.18;100927.78;5205508;28;20511;-79
2022/08/03 03:26:29;;;;;;;0.45;0.45;;;;;;;22.91;48.43;100933.13;5176790;28;20033;-79
2022/08/03 03:29:01;;;;;;;0.75;0.75;;;;;;;22.87;48.65;100937.00;5188387;28;20509;-79
2022/08/03 03:31:31;;;;;;;0.33;0.33;;;;;;;22.85;48.44;100936.25;5204824;28;20370;-79
2022/08/03 03:34:05;;;;;;;4.32;1.40;;;;;;;22.82;48.72;100938.31;5210201;28;20288;-79
2022/08/03 03:36:35;;;;;;;0.40;0.40;;;;;;;22.79;48.76;100936.72;5194374;28;20029;-79
2022/08/03 03:39:06;;;;;;;0.40;0.40;;;;;;;22.78;48.83;100941.25;5194753;28;20033;-79
2022/08/03 03:41:38;;;;;;;0.85;0.60;;;;;;;22.77;49.09;100936.84;5209492;28;20042;-79
2022/08/03 03:44:08;;;;;;;0.55;0.55;;;;;;;22.75;49.28;100940.63;5192430;28;20029;-79
2022/08/03 03:46:39;;;;;;;0.20;0.20;;;;;;;22.74;49.12;100938.91;5210032;28;20433;-79
2022/08/03 03:49:09;;;;;;;0.50;0.50;;;;;;;22.71;48.74;100936.44;5177768;28;20026;-79
2022/08/03 03:51:40;;;;;;;0.82;0.75;;;;;;;22.68;48.76;100939.38;5196365;28;20406;-79
2022/08/03 03:54:10;;;;;;;0.20;0.20;;;;;;;22.67;49.17;100943.00;5193037;28;20029;-79
2022/08/03 03:56:41;;;;;;;1.35;0.47;;;;;;;22.67;48.59;100937.66;5182941;28;20064;-79
2022/08/03 03:59:11;;;;;;;4.13;1.65;;;;;;;22.63;49.36;100939.72;5185681;28;20037;-80
2022/08/03 04:01:42;;;;;;;0.30;0.30;;;;;;;22.61;49.12;100941.66;5183325;28;20351;-79
2022/08/03 04:12:43;;;;;;;4.40;1.52;;;;;;;22.48;49.87;100947.06;5188791;28;20470;-79
2022/08/03 04:15:22;;;;;;;2.42;0.75;;;;;;;22.49;49.07;100946.09;5168727;28;20038;-79
2022/08/03 04:17:56;;;;;;;0.30;0.30;;;;;;;22.45;49.13;100942.78;5172649;28;20026;-80
2022/08/03 04:20:31;;;;;;;0.30;0.30;;;;;;;22.45;49.26;100947.25;5166372;28;20121;-77
2022/08/03 04:23:03;;;;;;;0.73;0.68;;;;;;;22.42;49.90;100942.16;5164964;28;20038;-77
2022/08/03 04:25:38;;;;;;;0.30;0.30;;;;;;;22.40;49.62;100944.94;5160404;28;20732;-77
2022/08/03 04:28:09;;;;;;;0.70;0.70;;;;;;;22.40;49.30;100946.75;5149731;28;20726;-76
2022/08/03 04:30:46;;;;;;;0.25;0.25;;;;;;;22.37;50.03;100947.81;5150922;28;20395;-76
2022/08/03 04:33:18;;;;;;;0.25;0.25;;;;;;;22.35;50.11;100948.91;5172213;28;20192;-77
2022/08/03 04:35:51;;;;;;;0.28;0.28;;;;;;;22.32;50.07;100945.47;5140970;28;20030;-76
2022/08/03 04:38:24;;;;;;;0.40;0.40;;;;;;;22.30;50.69;100950.06;5147928;28;20055;-76
2022/08/03 04:40:55;;;;;;;1.17;0.63;;;;;;;22.29;50.14;100953.72;5141472;28;20061;-76
2022/08/03 04:43:30;;;;;;;0.65;0.65;;;;;;;22.30;49.61;100955.41;5166565;28;20238;-76
2022/08/03 04:46:02;;;;;;;3.40;0.73;;;;;;;22.29;49.90;100961.72;5180151;28;20678;-78
2022/08/03 04:48:33;;;;;;;1.25;1.15;;;;;;;22.26;50.10;100956.63;5169295;28;20049;-77
2022/08/03 04:51:05;;;;;;;0.50;0.50;;;;;;;22.25;50.29;100956.72;5151752;28;20042;-77
2022/08/03 04:53:36;;;;;;;0.45;0.45;;;;;;;22.26;49.45;100958.44;5162720;28;20120;-77
2022/08/03 04:56:07;;;;;;;0.77;0.77;;;;;;;22.25;50.18;100962.94;5152411;28;20346;-77
2022/08/03 04:58:38;;;;;;;0.20;0.20;;;;;;;22.24;50.12;100949.66;5160318;28;20030;-77
2022/08/03 05:01:08;;;;;;;0.73;0.73;;;;;;;22.24;49.95;100955.00;5160643;28;20042;-77
2022/08/03 05:03:39;;;;;;;0.65;0.65;;;;;;;22.21;50.30;100949.91;5152067;28;20038;-77
2022/08/03 05:06:09;;;;;;;1.08;1.05;;;;;;;22.21;50.22;100958.75;5147786;28;20332;-77
2022/08/03 05:08:40;;;;;;;0.35;0.30;;;;;;;22.20;49.77;100957.06;5159703;28;20494;-79
2022/08/03 05:11:10;;;;;;;1.33;0.88;;;;;;;22.21;49.97;100972.13;5158619;28;20049;-78
2022/08/03 05:13:41;;;;;;;1.23;0.63;;;;;;;22.19;50.23;100966.03;5166681;28;20378;-78
2022/08/03 05:16:12;;;;;;;0.50;0.50;;;;;;;22.20;50.73;100965.06;5140923;28;20054;-78
2022/08/03 05:18:43;;;;;;;0.60;0.60;;;;;;;22.20;51.01;100965.06;5147749;28;20041;-78
2022/08/03 05:21:20;;;;;;;0.17;0.17;;;;;;;22.19;50.85;100962.50;5157385;28;20049;-78
2022/08/03 05:23:50;;;;;;;0.40;0.40;;;;;;;22.17;50.73;100965.31;5169972;28;20031;-76
2022/08/03 05:26:24;;;;;;;0.40;0.40;;;;;;;22.18;50.63;100967.03;5162937;28;20050;-76
2022/08/03 05:28:54;;;;;;;0.93;0.82;;;;;;;22.19;51.26;100970.53;5163385;28;20018;-76
2022/08/03 05:31:25;;;;;;;0.52;0.52;;;;;;;22.22;50.81;100967.66;5142883;28;20045;-76
2022/08/03 05:33:56;;;;;;;0.40;0.40;;;;;;;22.22;50.80;100963.16;5136699;28;20489;-77
2022/08/03 05:36:26;;;;;;;0.30;0.30;;;;;;;22.21;50.93;100961.44;5152435;28;20437;-76
2022/08/03 05:38:57;;;;;;;1.48;1.00;;;;;;;22.25;50.73;100968.28;5159963;28;20038;-76
2022/08/03 05:41:27;;;;;;;1.92;1.05;;;;;;;22.27;50.37;100963.66;5144294;28;20060;-76
2022/08/03 05:43:57;;;;;;;1.65;0.30;;;;;;;22.28;50.52;100965.38;5149155;28;20034;-76
2022/08/03 05:46:28;;;;;;;0.52;0.52;;;;;;;22.28;50.53;100961.84;5184605;28;20492;-76
2022/08/03 05:48:58;;;;;;;1.17;0.65;;;;;;;22.32;50.71;100966.00;5157309;28;20505;-75
2022/08/03 05:51:30;;;;;;;0.35;0.35;;;;;;;22.32;50.60;100955.31;5149339;28;20449;-75
2022/08/03 05:54:00;;;;;;;2.03;1.60;;;;;;;22.36;50.80;100955.94;5157631;28;20085;-75
2022/08/03 05:56:31;;;;;;;0.55;0.52;;;;;;;22.37;50.71;100960.31;5148612;28;20126;-76
2022/08/03 05:59:02;;;;;;;0.38;0.38;;;;;;;22.40;51.13;100954.78;5165604;28;20057;-76
2022/08/03 06:01:33;;;;;;;0.17;0.17;;;;;;;22.43;51.07;100960.75;5161463;28;20030;-76
2022/08/03 06:04:03;;;;;;;0.75;0.75;;;;;;;22.44;51.35;100967.81;5144871;28;20047;-76
2022/08/03 06:06:34;;;;;;;4.75;2.75;;;;;;;22.46;51.38;100957.88;5162986;28;20042;-77
2022/08/03 06:09:07;;;;;;;0.30;0.30;;;;;;;22.50;51.18;100963.84;5149803;28;20129;-76
2022/08/03 06:11:41;;;;;;;3.97;1.90;;;;;;;22.48;51.45;100961.25;5156057;28;20066;-76
2022/08/03 06:14:11;;;;;;;1.85;0.57;;;;;;;22.54;51.34;100967.13;5161548;28;20116;-76
2022/08/03 06:16:41;;;;;;;11.05;0.98;;;;;;;22.54;51.34;100970.66;5165648;28;20054;-76
2022/08/03 06:19:12;;;;;;;0.30;0.30;;;;;;;22.52;51.43;100972.56;5159979;28;20041;-77
2022/08/03 06:21:42;;;;;;;0.32;0.32;;;;;;;22.54;52.35;100977.84;5166702;28;20046;-78
2022/08/03 06:24:13;;;;;;;0.63;0.63;;;;;;;22.56;51.78;100976.75;5150056;28;20034;-78
2022/08/03 06:26:43;;;;;;;0.85;0.68;;;;;;;22.58;51.58;100976.63;5167429;28;20041;-77
2022/08/03 06:29:14;;;;;;;4.85;1.40;;;;;;;22.63;51.67;100974.47;5152278;28;20035;-78
2022/08/03 06:31:44;;;;;;;0.65;0.65;;;;;;;22.64;51.66;100979.72;5151137;28;20026;-78
2022/08/03 06:34:15;;;;;;;0.50;0.50;;;;;;;22.68;51.41;100979.50;5164461;28;20107;-77
2022/08/03 06:36:47;;;;;;;0.30;0.30;;;;;;;22.70;51.09;100980.22;5166453;28;20096;-78
2022/08/03 06:39:17;;;;;;;0.45;0.45;;;;;;;22.70;52.10;100980.22;5163122;28;20381;-77
2022/08/03 06:41:48;;;;;;;2.10;0.70;;;;;;;22.72;51.60;100981.81;5164817;28;20092;-77
2022/08/03 06:44:18;;;;;;;6.20;0.98;;;;;;;22.72;52.36;100983.63;5163630;28;20037;-77
2022/08/03 06:46:50;;;;;;;0.95;0.80;;;;;;;22.80;51.89;100975.88;5150348;28;20049;-78
2022/08/03 06:49:21;;;;;;;3.20;1.42;;;;;;;22.80;51.67;100983.91;5144652;28;20488;-78
2022/08/03 06:51:52;;;;;;;1.02;0.82;;;;;;;22.84;51.67;100977.38;5148855;28;20034;-78
2022/08/03 06:54:23;;;;;;;0.65;0.65;;;;;;;22.81;52.86;100977.59;5154471;28;20463;-78
2022/08/03 06:56:53;;;;;;;0.40;0.40;;;;;;;22.85;52.86;100979.06;5186285;28;20046;-78
2022/08/03 06:59:24;;;;;;;0.73;0.73;;;;;;;22.84;54.27;100980.06;5170340;28;20500;-78
2022/08/03 07:01:55;;;;;;;0.45;0.40;;;;;;;22.92;53.39;100984.81;5148959;28;20599;-78
2022/08/03 07:04:27;;;;;;;0.75;0.75;;;;;;;22.95;52.67;100979.25;5134105;28;20188;-78
2022/08/03 07:06:58;;;;;;;0.30;0.30;;;;;;;22.99;52.53;100977.19;5172134;28;20508;-77
2022/08/03 07:09:28;;;;;;;1.33;1.15;;;;;;;23.02;53.17;100980.47;5156339;28;20127;-77
2022/08/03 07:12:01;;;;;;;1.48;0.52;;;;;;;23.06;52.70;100975.75;5134531;28;20045;-77
2022/08/03 07:14:31;;;;;;;5.03;1.90;;;;;;;23.08;52.80;100980.00;5167478;28;20502;-77
2022/08/03 07:17:02;;;;;;;0.40;0.40;;;;;;;23.14;52.93;100981.38;5167562;28;20137;-77
2022/08/03 07:19:32;;;;;;;3.13;0.77;;;;;;;23.19;52.08;100979.22;5161472;28;20049;-78
2022/08/03 07:22:03;;;;;;;0.43;0.43;;;;;;;23.20;54.74;100978.25;5158034;28;20046;-76
2022/08/03 07:24:34;;;;;;;0.32;0.32;;;;;;;23.23;53.63;100983.38;5175421;28;20049;-77
2022/08/03 07:27:04;;;;;;;0.43;0.43;;;;;;;23.33;52.70;100991.53;5136445;28;20038;-77
2022/08/03 07:29:38;;;;;;;0.28;0.28;;;;;;;23.32;53.12;100989.00;5152567;28;20034;-77
2022/08/03 07:32:08;;;;;;;0.20;0.20;;;;;;;23.41;53.02;100982.94;5133677;28;20408;-77
2022/08/03 07:34:39;;;;;;;0.40;0.40;;;;;;;23.49;53.17;100985.88;5152309;28;20333;-77
2022/08/03 07:37:10;;;;;;;0.57;0.45;;;;;;;23.50;53.48;100984.03;5155065;23;20193;-82
2022/08/03 07:39:41;;;;;;;0.43;0.40;;;;;;;23.48;54.14;100983.28;5184662;28;20038;-82
2022/08/03 07:42:11;;;;;;;0.73;0.73;;;;;;;23.53;53.91;100998.03;5161223;28;20681;-82
2022/08/03 07:44:43;;;;;;;0.20;0.20;;;;;;;23.67;53.73;100985.41;5148109;28;20072;-82
2022/08/03 07:47:25;;;;;;;2.08;0.95;;;;;;;23.65;54.26;100987.34;5194501;28;20092;-81
2022/08/03 07:49:56;;;;;;;0.80;0.52;;;;;;;23.60;55.60;100989.50;5165840;28;20601;-81
2022/08/03 07:55:18;;;;;;;0.30;0.30;;;;;;;23.69;54.31;100986.09;5162420;28;20048;-82
2022/08/03 07:58:06;;;;;;;0.47;0.47;;;;;;;23.79;54.33;100987.09;5172861;28;20040;-81
2022/08/03 08:00:37;;;;;;;13.07;1.63;;;;;;;23.73;54.24;100988.44;5177856;28;20359;-81
2022/08/03 08:03:08;;;;;;;2.53;1.50;;;;;;;23.83;53.79;100982.34;5176489;28;20152;-82
2022/08/03 08:05:39;;;;;;;0.65;0.65;;;;;;;23.91;53.99;100979.91;5174538;28;20037;-80
2022/08/03 08:08:10;;;;;;;0.52;0.52;;;;;;;23.92;53.96;100981.63;5184074;28;20053;-81
2022/08/03 08:10:42;;;;;;;0.68;0.68;;;;;;;23.95;54.27;100975.19;5182948;28;20057;-82
2022/08/03 08:13:13;;;;;;;0.40;0.40;;;;;;;23.99;53.58;100974.00;5165162;28;20032;-81
2022/08/03 08:15:43;;;;;;;0.32;0.30;;;;;;;24.02;53.44;100971.91;5175723;28;20140;-81
2022/08/03 08:18:14;;;;;;;0.30;0.30;;;;;;;24.04;53.90;100972.66;5150540;28;20033;-81
2022/08/03 08:20:44;;;;;;;0.35;0.35;;;;;;;24.08;54.06;100975.06;5163276;28;20030;-80
2022/08/03 08:23:21;;;;;;;0.63;0.50;;;;;;;24.12;53.70;100969.34;5168746;28;20044;-81
2022/08/03 08:25:52;;;;;;;0.60;0.60;;;;;;;24.18;52.95;100970.66;5140999;28;20534;-81
2022/08/03 08:28:23;;;;;;;0.52;0.52;;;;;;;24.27;53.23;100969.06;5158705;28;20030;-81
2022/08/03 08:30:53;;;;;;;3.88;1.45;;;;;;;24.44;53.10;100976.56;5152137;28;20037;-80
2022/08/03 08:33:24;;;;;;;0.25;0.25;;;;;;;24.34;52.91;100967.56;5171396;28;20124;-80
2022/08/03 08:35:55;;;;;;;0.25;0.25;;;;;;;24.29;53.34;100972.47;5181606;28;20038;-80
2022/08/03 08:38:25;;;;;;;10.23;1.33;;;;;;;24.48;52.59;100972.69;5179562;28;20032;-80
2022/08/03 08:40:56;;;;;;;0.82;0.82;;;;;;;24.63;52.54;100972.38;5164050;28;20494;-80
2022/08/03 08:43:27;;;;;;;1.10;0.68;;;;;;;24.77;51.53;100971.28;5199854;28;20569;-81
2022/08/03 08:45:58;;;;;;;0.47;0.47;;;;;;;24.70;51.79;100978.97;5178526;28;20032;-80
2022/08/03 08:48:29;;;;;;;2.72;1.15;;;;;;;24.56;52.08;100976.56;5188579;28;20026;-80
2022/08/03 08:51:01;;;;;;;0.20;0.20;;;;;;;24.70;51.83;100975.44;5158498;28;20029;-80
2022/08/03 08:53:35;;;;;;;0.25;0.25;;;;;;;24.71;51.51;100978.00;5212565;28;20033;-80
2022/08/03 08:56:09;;;;;;;0.82;0.82;;;;;;;24.73;51.50;100976.03;5152163;28;20038;-80
2022/08/03 08:58:47;;;;;;;0.43;0.43;;;;;;;24.85;50.65;100967.94;5176268;28;20037;-80
2022/08/03 09:01:19;;;;;;;0.30;0.30;;;;;;;25.00;50.21;100972.00;5165552;28;20585;-82
2022/08/03 09:03:50;;;;;;;0.28;0.28;;;;;;;24.86;50.50;100967.81;5160212;28;20030;-82
2022/08/03 09:06:22;;;;;;;0.20;0.20;;;;;;;24.93;50.84;100970.81;5159755;28;20140;-81
2022/08/03 09:08:53;;;;;;;0.63;0.55;;;;;;;24.96;50.35;100965.22;5163983;28;20271;-80
2022/08/03 09:11:24;;;;;;;0.20;0.20;;;;;;;24.97;50.61;100969.59;5165782;28;20448;-81
2022/08/03 09:13:54;;;;;;;0.30;0.30;;;;;;;25.08;50.19;100966.84;5159021;28;20125;-82
2022/08/03 09:16:27;;;;;;;0.30;0.30;;;;;;;25.08;49.99;100974.88;5149957;28;20034;-81
2022/08/03 09:19:11;;;;;;;1.02;0.93;;;;;;;25.15;49.68;100969.84;5141381;28;20021;-82
2022/08/03 09:21:42;;;;;;;0.30;0.30;;;;;;;25.18;49.59;100979.47;5167764;28;20548;-81
2022/08/03 09:24:12;;;;;;;1.02;0.95;;;;;;;25.36;49.46;100969.84;5155838;28;20030;-82
2022/08/03 09:26:49;;;;;;;0.40;0.40;;;;;;;25.64;48.44;100978.25;5154882;28;20038;-81
2022/08/03 09:29:21;;;;;;;0.20;0.20;;;;;;;25.48;48.81;100980.56;5152879;28;20033;-82
2022/08/03 09:32:01;;;;;;;0.55;0.30;;;;;;;25.61;48.65;100973.13;5166529;28;20506;-82
2022/08/03 09:34:35;;;;;;;0.43;0.35;;;;;;;25.59;48.77;100969.72;5169489;28;20036;-82
2022/08/03 09:37:14;;;;;;;0.40;0.40;;;;;;;25.58;49.05;100976.06;5175751;28;20044;-81
2022/08/03 09:39:46;;;;;;;0.77;0.77;;;;;;;25.60;48.65;100979.47;5166849;28;20061;-82
2022/08/03 09:42:21;;;;;;;0.80;0.73;;;;;;;25.67;48.55;100969.06;5178385;28;20042;-82
2022/08/03 09:44:52;;;;;;;0.22;0.22;;;;;;;25.59;48.71;100970.59;5186880;28;20037;-82
2022/08/03 09:47:28;;;;;;;0.82;0.82;;;;;;;25.62;48.20;100961.41;5192405;28;20033;-80
2022/08/03 09:50:01;;;;;;;0.35;0.35;;;;;;;25.67;48.64;100961.00;5184676;28;20028;-80
2022/08/03 09:52:36;;;;;;;2.00;1.10;;;;;;;25.69;48.22;100962.56;5160334;28;20033;-81
2022/08/03 09:55:11;;;;;;;0.20;0.20;;;;;;;25.74;48.16;100965.69;5156023;28;20034;-81
2022/08/03 09:57:46;;;;;;;0.28;0.28;;;;;;;25.79;48.07;100959.91;5165086;28;20548;-81
2022/08/03 10:00:17;;;;;;;0.65;0.65;;;;;;;25.79;47.48;100959.06;5173316;28;20041;-82
2022/08/03 10:02:49;;;;;;;0.20;0.20;;;;;;;25.81;47.61;100957.09;5177485;28;20064;-81
2022/08/03 10:05:31;;;;;;;0.35;0.35;;;;;;;25.91;46.75;100956.16;5157670;28;20042;-81
2022/08/03 10:08:14;;;;;;;0.20;0.20;;;;;;;26.07;46.71;100960.16;5178413;28;20051;-80
2022/08/03 10:10:46;;;;;;;;;;;;;;;26.02;46.85;100960.56;5176202;28;20530;-81
2022/08/03 10:13:17;;;;;;;0.40;0.40;;;;;;;26.11;46.87;100960.75;5178882;28;19917;-81
2022/08/03 10:15:48;;;;;;;0.93;0.82;;;;;;;26.15;46.64;100956.81;5160621;28;20041;-81
2022/08/03 10:18:22;;;;;;;0.28;0.28;;;;;;;26.29;45.60;100956.41;5143289;28;20086;-81
2022/08/03 10:21:06;;;;;;;0.20;0.20;;;;;;;26.34;45.70;100951.47;5139828;28;20072;-81
2022/08/03 10:23:40;;;;;;;0.30;0.30;;;;;;;26.29;44.78;100947.47;5161993;28;20033;-81
2022/08/03 10:26:15;;;;;;;0.38;0.38;;;;;;;26.39;45.79;100953.75;5171280;28;20037;-81
2022/08/03 10:28:49;;;;;;;0.40;0.40;;;;;;;26.36;45.73;100943.28;5171610;28;20037;-83
2022/08/03 10:31:22;;;;;;;0.20;0.20;;;;;;;26.46;44.46;100940.59;5172752;28;20155;-82
2022/08/03 10:33:58;;;;;;;0.20;0.20;;;;;;;26.58;44.24;100936.75;5180310;28;20069;-81
2022/08/03 10:36:32;;;;;;;0.20;0.20;;;;;;;26.63;44.41;100939.88;5165757;28;20034;-81
2022/08/03 10:39:11;;;;;;;0.30;0.30;;;;;;;26.69;44.90;100939.31;5140192;28;20062;-81
2022/08/03 10:41:45;;;;;;;0.20;0.20;;;;;;;26.74;44.86;100935.34;5160056;28;20057;-81
2022/08/03 10:44:22;;;;;;;0.20;0.20;;;;;;;26.75;44.84;100928.97;5162432;28;20034;-81
2022/08/03 10:46:53;;;;;;;0.20;0.20;;;;;;;26.83;44.05;100919.22;5161552;28;20056;-81
2022/08/03 10:49:28;;;;;;;0.30;0.30;;;;;;;26.92;44.07;100920.19;5140065;28;20486;-81
2022/08/03 10:51:58;;;;;;;0.40;0.40;;;;;;;27.01;43.36;100922.03;5189620;28;20491;-81
2022/08/03 10:57:52;;;;;;;0.73;0.73;;;;;;;27.11;43.55;100907.69;5195603;28;20042;-82
2022/08/03 11:00:24;;;;;;;0.15;0.15;;;;;;;27.35;42.81;100912.59;5186295;28;20033;-82
2022/08/03 11:03:15;;;;;;;0.40;0.40;;;;;;;27.22;42.78;100912.06;5161302;28;20036;-82
2022/08/03 11:05:48;;;;;;;0.50;0.45;;;;;;;27.35;42.47;100904.53;5184045;28;20046;-83
2022/08/03 11:08:28;;;;;;;0.30;0.30;;;;;;;27.48;42.23;100902.38;5172746;28;20116;-82
2022/08/03 11:11:01;;;;;;;0.57;0.35;;;;;;;27.47;43.22;100897.13;5153397;28;20041;-82
2022/08/03 11:13:35;;;;;;;0.32;0.32;;;;;;;27.72;41.97;100897.44;5146344;28;20049;-82
2022/08/03 11:16:18;;;;;;;0.40;0.40;;;;;;;27.71;41.65;100899.28;5154186;28;20121;-81
2022/08/03 11:18:59;;;;;;;;;;;;;;;27.74;41.93;100903.53;5188298;28;20030;-81
2022/08/03 11:21:50;;;;;;;0.32;0.32;;;;;;;27.98;40.63;100894.00;5170625;28;20577;-80
2022/08/03 11:24:39;;;;;;;0.50;0.50;;;;;;;27.89;41.06;100898.47;5160475;28;20278;-81
2022/08/03 11:27:24;;;;;;;0.20;0.20;;;;;;;28.03;40.33;100899.81;5195466;28;20057;-81
2022/08/03 11:30:08;;;;;;;0.40;0.40;;;;;;;28.04;41.43;100896.13;5181424;28;20063;-81
2022/08/03 11:32:39;;;;;;;0.45;0.28;;;;;;;28.32;39.64;100894.25;5205741;28;20148;-81
2022/08/03 11:35:26;;;;;;;0.32;0.32;;;;;;;28.36;39.70;100892.09;5190590;28;20025;-82
2022/08/03 11:37:56;;;;;;;0.40;0.40;;;;;;;28.35;39.30;100893.09;5181649;28;20029;-81
2022/08/03 11:40:38;;;;;;;0.60;0.57;;;;;;;28.29;39.90;100894.56;5156819;28;20783;-81
2022/08/03 11:43:29;;;;;;;1.00;0.63;;;;;;;28.36;40.71;100898.31;5159456;28;20129;-81
2022/08/03 11:46:06;;;;;;;0.20;0.20;;;;;;;28.45;39.57;100888.47;5153089;28;20435;-81
2022/08/03 11:48:47;;;;;;;0.20;0.20;;;;;;;28.61;38.87;100895.84;5174896;28;20677;-81
2022/08/03 11:51:23;;;;;;;1.35;0.73;;;;;;;28.74;38.83;100890.94;5151239;28;20184;-81
2022/08/03 11:54:23;;;;;;;0.38;0.38;;;;;;;28.79;39.76;100893.19;5173797;28;20032;-81
2022/08/03 11:56:54;;;;;;;1.70;0.93;;;;;;;29.11;37.88;100889.00;5161977;28;20038;-82
2022/08/03 11:59:33;;;;;;;0.55;0.55;;;;;;;28.93;38.81;100891.72;5182677;28;20034;-82
2022/08/03 12:02:12;;;;;;;0.20;0.20;;;;;;;28.99;38.82;100891.13;5167743;28;20048;-82
2022/08/03 12:04:50;;;;;;;0.40;0.40;;;;;;;29.04;38.72;100893.34;5203324;28;20164;-82
2022/08/03 12:07:20;;;;;;;0.28;0.28;;;;;;;29.13;39.05;100886.97;5172712;28;20037;-82
2022/08/03 12:10:12;;;;;;;0.20;0.20;;;;;;;29.21;38.74;100876.22;5189426;28;20030;-82